createdAt,value
2023-05-20T00:01:53.640Z,47.97
2023-05-20T00:04:21.207Z,48.03
2023-05-20T00:06:48.663Z,48.32
2023-05-20T00:09:17.376Z,48.74
2023-05-20T00:11:45.942Z,48.30
2023-05-20T00:14:13.089Z,49.00
2023-05-20T00:16:40.485Z,49.02
2023-05-20T00:19:08.020Z,48.10
2023-05-20T00:21:35.180Z,48.59
2023-05-20T00:24:02.379Z,48.80
2023-05-20T00:26:29.751Z,48.59
2023-05-20T00:28:58.096Z,49.13
2023-05-20T00:31:25.418Z,48.39
2023-05-20T00:33:53.058Z,48.32
2023-05-20T00:36:20.861Z,48.71
2023-05-20T00:38:48.176Z,48.11
2023-05-20T00:41:15.521Z,48.25
2023-05-20T00:43:43.930Z,47.99
2023-05-20T00:46:11.599Z,48.48
2023-05-20T00:48:43.826Z,48.85
2023-05-20T00:51:13.221Z,48.77
2023-05-20T00:53:42.266Z,47.90
2023-05-20T00:56:10.295Z,48.80
2023-05-20T00:58:38.216Z,48.58
2023-05-20T01:01:06.761Z,48.40
2023-05-20T01:03:34.280Z,48.71
2023-05-20T01:06:02.436Z,48.64
2023-05-20T01:08:29.887Z,48.63
2023-05-20T01:11:08.238Z,48.97
2023-05-20T01:13:43.511Z,48.81
2023-05-20T01:16:12.193Z,48.54
2023-05-20T01:18:41.164Z,48.90
2023-05-20T01:21:12.152Z,48.67
2023-05-20T01:23:41.146Z,49.04
2023-05-20T01:26:13.976Z,49.26
2023-05-20T01:28:45.942Z,49.37
2023-05-20T01:31:24.232Z,49.66
2023-05-20T01:33:55.760Z,49.62
2023-05-20T01:36:23.337Z,50.02
2023-05-20T01:38:51.522Z,49.93
2023-05-20T01:41:19.357Z,49.51
2023-05-20T01:43:46.948Z,49.92
2023-05-20T01:46:15.756Z,50.35
2023-05-20T01:48:43.354Z,50.59
2023-05-20T01:51:10.578Z,50.70
2023-05-20T01:53:37.808Z,51.03
2023-05-20T01:56:06.364Z,51.51
2023-05-20T01:58:33.692Z,51.08
2023-05-20T02:01:01.809Z,51.30
2023-05-20T02:03:29.069Z,51.74
2023-05-20T02:05:56.642Z,51.67
2023-05-20T02:08:23.884Z,51.53
2023-05-20T02:10:51.346Z,52.14
2023-05-20T02:13:18.783Z,51.93
2023-05-20T02:15:46.232Z,52.14
2023-05-20T02:18:14.262Z,52.74
2023-05-20T02:20:42.811Z,52.14
2023-05-20T02:23:10.271Z,52.29
2023-05-20T02:25:37.592Z,52.74
2023-05-20T02:28:06.186Z,52.49
2023-05-20T02:30:33.431Z,52.59
2023-05-20T02:33:00.722Z,53.16
2023-05-20T02:35:28.241Z,53.44
2023-05-20T02:37:55.657Z,53.27
2023-05-20T02:40:23.154Z,53.45
2023-05-20T02:42:50.320Z,53.09
2023-05-20T02:45:17.533Z,53.98
2023-05-20T02:47:45.907Z,54.06
2023-05-20T02:50:12.997Z,53.66
2023-05-20T02:52:42.619Z,53.95
2023-05-20T02:55:10.160Z,53.87
2023-05-20T02:57:40.711Z,54.00
2023-05-20T03:00:13.764Z,54.43
2023-05-20T03:02:41.056Z,54.32
2023-05-20T03:05:09.535Z,54.50
2023-05-20T03:07:36.985Z,54.33
2023-05-20T03:10:08.210Z,54.47
2023-05-20T03:12:35.733Z,54.14
2023-05-20T03:15:03.952Z,54.65
2023-05-20T03:17:33.326Z,54.83
2023-05-20T03:20:01.981Z,55.03
2023-05-20T03:22:33.068Z,54.79
2023-05-20T03:25:02.991Z,54.73
2023-05-20T03:27:37.014Z,54.88
2023-05-20T03:30:05.289Z,54.99
2023-05-20T03:32:34.354Z,55.42
2023-05-20T03:35:02.070Z,54.76
2023-05-20T03:37:32.049Z,55.54
2023-05-20T03:39:59.309Z,55.71
2023-05-20T03:42:26.506Z,55.11
2023-05-20T03:44:53.815Z,55.35
2023-05-20T03:47:21.156Z,55.69
2023-05-20T03:49:48.274Z,55.51
2023-05-20T03:52:15.457Z,55.34
2023-05-20T03:54:42.718Z,55.76
2023-05-20T03:57:10.687Z,55.74
2023-05-20T03:59:38.338Z,55.82
2023-05-20T04:02:06.348Z,56.47
2023-05-20T04:04:33.495Z,56.10
2023-05-20T04:07:01.178Z,55.98
2023-05-20T04:09:28.257Z,56.58
2023-05-20T04:11:55.393Z,56.15
2023-05-20T04:14:22.538Z,56.34
2023-05-20T04:16:50.460Z,56.49
2023-05-20T04:19:19.729Z,56.34
2023-05-20T04:21:46.975Z,56.42
2023-05-20T04:24:14.824Z,56.36
2023-05-20T04:26:42.420Z,56.15
2023-05-20T04:29:09.547Z,56.01
2023-05-20T04:31:36.648Z,56.01
2023-05-20T04:34:04.608Z,56.03
2023-05-20T04:36:31.725Z,56.29
2023-05-20T04:39:00.702Z,56.14
2023-05-20T04:41:27.803Z,55.62
2023-05-20T04:43:59.921Z,56.22
2023-05-20T04:46:27.290Z,56.40
2023-05-20T04:48:54.471Z,55.98
2023-05-20T04:51:21.753Z,55.54
2023-05-20T04:53:50.919Z,55.94
2023-05-20T04:56:17.970Z,56.52
2023-05-20T04:58:45.046Z,56.11
2023-05-20T05:01:12.372Z,56.29
2023-05-20T05:03:39.451Z,55.85
2023-05-20T05:06:06.804Z,56.05
2023-05-20T05:08:33.989Z,55.40
2023-05-20T05:11:01.094Z,55.68
2023-05-20T05:13:28.345Z,55.44
2023-05-20T05:16:00.019Z,55.57
2023-05-20T05:18:28.810Z,54.80
2023-05-20T05:21:06.698Z,55.65
2023-05-20T05:23:35.456Z,54.77
2023-05-20T05:26:02.721Z,54.91
2023-05-20T05:28:29.920Z,54.73
2023-05-20T05:30:58.165Z,54.87
2023-05-20T05:33:26.796Z,54.83
2023-05-20T05:35:54.533Z,54.74
2023-05-20T05:38:21.744Z,54.80
2023-05-20T05:40:49.208Z,54.81
2023-05-20T05:43:17.361Z,54.71
2023-05-20T05:45:46.925Z,54.31
2023-05-20T05:48:14.184Z,53.96
2023-05-20T05:50:45.909Z,54.23
2023-05-20T05:53:14.778Z,54.04
2023-05-20T05:55:46.856Z,53.92
2023-05-20T05:58:14.201Z,53.54
2023-05-20T06:00:41.917Z,52.96
2023-05-20T06:03:10.076Z,52.94
2023-05-20T06:05:38.353Z,52.63
2023-05-20T06:08:05.919Z,52.61
2023-05-20T06:10:34.973Z,52.48
2023-05-20T06:13:02.005Z,52.26
2023-05-20T06:15:29.111Z,52.25
2023-05-20T06:17:57.055Z,52.32
2023-05-20T06:20:25.587Z,52.48
2023-05-20T06:22:52.857Z,52.29
2023-05-20T06:25:20.568Z,52.37
2023-05-20T06:27:47.816Z,52.21
2023-05-20T06:30:18.789Z,52.38
2023-05-20T06:32:46.874Z,51.94
2023-05-20T06:35:13.981Z,51.99
2023-05-20T06:37:41.534Z,51.81
2023-05-20T06:40:10.006Z,51.70
2023-05-20T06:42:37.538Z,51.41
2023-05-20T06:45:06.463Z,51.22
2023-05-20T06:47:55.479Z,50.76
2023-05-20T06:50:22.674Z,50.47
2023-05-20T06:52:49.906Z,50.19
2023-05-20T06:55:17.504Z,50.35
2023-05-20T06:57:54.324Z,50.46
2023-05-20T07:00:25.103Z,50.28
2023-05-20T07:02:55.974Z,50.21
2023-05-20T07:05:30.131Z,49.88
2023-05-20T07:07:58.805Z,49.96
2023-05-20T07:10:27.122Z,50.18
2023-05-20T07:12:54.618Z,49.94
2023-05-20T07:15:22.499Z,50.01
2023-05-20T07:17:49.874Z,49.64
2023-05-20T07:20:17.584Z,49.83
2023-05-20T07:22:45.416Z,49.57
2023-05-20T07:25:21.946Z,49.45
2023-05-20T07:27:50.003Z,49.37
2023-05-20T07:30:17.282Z,48.96
2023-05-20T07:32:51.542Z,48.84
2023-05-20T07:35:19.286Z,48.86
2023-05-20T07:37:46.401Z,48.67
2023-05-20T07:40:14.625Z,48.35
2023-05-20T07:42:42.204Z,48.04
2023-05-20T07:45:10.689Z,47.91
2023-05-20T07:47:38.720Z,47.34
2023-05-20T07:50:06.424Z,46.74
2023-05-20T07:52:43.951Z,46.69
2023-05-20T07:55:23.555Z,46.10
2023-05-20T07:57:50.892Z,46.32
2023-05-20T08:00:19.566Z,45.86
2023-05-20T08:02:47.476Z,45.70
2023-05-20T08:05:20.755Z,45.39
2023-05-20T08:07:47.904Z,44.92
2023-05-20T08:10:16.043Z,44.33
2023-05-20T08:12:44.713Z,44.44
2023-05-20T08:15:12.576Z,44.02
2023-05-20T08:17:40.690Z,43.84
2023-05-20T08:20:12.859Z,43.28
2023-05-20T08:22:41.000Z,43.60
2023-05-20T08:25:09.421Z,42.78
2023-05-20T08:27:37.374Z,42.77
2023-05-20T08:30:08.317Z,42.29
2023-05-20T08:32:36.916Z,41.97
2023-05-20T08:35:05.112Z,41.72
2023-05-20T08:37:32.197Z,41.74
2023-05-20T08:39:59.312Z,41.81
2023-05-20T08:42:27.099Z,41.44
2023-05-20T08:44:57.712Z,41.37
2023-05-20T08:47:26.723Z,41.34
2023-05-20T08:49:53.866Z,41.19
2023-05-20T08:52:22.627Z,41.34
2023-05-20T08:54:51.793Z,41.50
2023-05-20T08:57:20.524Z,41.63
2023-05-20T08:59:47.757Z,41.29
2023-05-20T09:02:15.818Z,40.96
2023-05-20T09:04:43.371Z,40.47
2023-05-20T09:07:10.955Z,40.57
2023-05-20T09:09:38.426Z,40.61
2023-05-20T09:12:06.386Z,40.38
2023-05-20T09:14:33.615Z,40.61
2023-05-20T09:17:00.836Z,40.42
2023-05-20T09:19:28.116Z,40.64
2023-05-20T09:21:55.594Z,40.41
2023-05-20T09:24:26.862Z,39.95
2023-05-20T09:26:54.376Z,39.79
2023-05-20T09:29:22.041Z,39.17
2023-05-20T09:31:50.398Z,39.42
2023-05-20T09:34:18.090Z,39.22
2023-05-20T09:36:45.597Z,39.34
2023-05-20T09:39:20.142Z,38.73
2023-05-20T09:41:56.886Z,39.20
2023-05-20T09:44:24.388Z,39.69
2023-05-20T09:46:53.416Z,39.88
2023-05-20T09:49:23.480Z,40.09
2023-05-20T09:51:51.397Z,40.09
2023-05-20T09:54:19.897Z,39.73
2023-05-20T09:56:48.250Z,40.07
2023-05-20T09:59:21.878Z,40.14
2023-05-20T10:01:49.225Z,40.30
2023-05-20T10:04:18.562Z,40.32
2023-05-20T10:07:11.980Z,40.68
2023-05-20T10:09:57.424Z,41.05
2023-05-20T10:12:34.548Z,41.12
2023-05-20T10:15:15.134Z,41.35
2023-05-20T10:18:05.823Z,41.49
2023-05-20T10:20:33.191Z,41.59
2023-05-20T10:23:00.294Z,41.55
2023-05-20T10:25:28.634Z,41.72
2023-05-20T10:28:08.846Z,41.58
2023-05-20T10:30:38.154Z,41.42
2023-05-20T10:33:07.153Z,41.76
2023-05-20T10:35:34.635Z,41.62
2023-05-20T10:38:11.043Z,41.75
2023-05-20T10:40:38.929Z,41.61
2023-05-20T10:43:13.765Z,41.53
2023-05-20T10:45:51.165Z,41.58
2023-05-20T10:48:29.973Z,41.52
2023-05-20T10:51:06.124Z,41.58
2023-05-20T10:53:41.558Z,41.25
2023-05-20T10:56:24.394Z,41.53
2023-05-20T10:58:53.533Z,41.78
2023-05-20T11:01:26.851Z,41.82
2023-05-20T11:03:58.313Z,41.68
2023-05-20T11:06:28.587Z,41.98
2023-05-20T11:08:56.668Z,41.86
2023-05-20T11:11:24.234Z,41.65
2023-05-20T11:13:52.738Z,41.58
2023-05-20T11:16:21.616Z,41.78
2023-05-20T11:18:50.649Z,41.75
2023-05-20T11:21:20.411Z,41.69
2023-05-20T11:23:47.631Z,41.48
2023-05-20T11:26:14.917Z,41.77
2023-05-20T11:28:42.306Z,41.54
2023-05-20T11:31:10.500Z,41.59
2023-05-20T11:33:42.706Z,41.13
2023-05-20T11:36:26.403Z,41.27
2023-05-20T11:38:57.973Z,41.02
2023-05-20T11:41:26.247Z,41.29
2023-05-20T11:44:00.537Z,40.67
2023-05-20T11:46:28.943Z,40.86
2023-05-20T11:48:58.035Z,40.82
2023-05-20T11:51:28.236Z,40.96
2023-05-20T11:54:06.943Z,40.82
2023-05-20T11:56:38.934Z,40.85
2023-05-20T11:59:08.271Z,41.04
2023-05-20T12:01:46.123Z,41.38
2023-05-20T12:04:14.904Z,41.06
2023-05-20T12:06:45.972Z,41.67
2023-05-20T12:09:14.355Z,41.49
2023-05-20T12:11:42.289Z,41.72
2023-05-20T12:14:10.282Z,41.13
2023-05-20T12:16:38.244Z,41.15
2023-05-20T12:19:06.102Z,40.86
2023-05-20T12:21:33.456Z,41.11
2023-05-20T12:24:01.281Z,41.30
2023-05-20T12:26:30.065Z,40.97
2023-05-20T12:28:57.684Z,41.09
2023-05-20T12:31:25.414Z,40.67
2023-05-20T12:33:52.706Z,40.81
2023-05-20T12:36:20.067Z,40.39
2023-05-20T12:38:47.750Z,40.58
2023-05-20T12:41:14.991Z,40.19
2023-05-20T12:43:42.162Z,39.81
2023-05-20T12:46:09.863Z,39.86
2023-05-20T12:48:39.509Z,39.96
2023-05-20T12:51:08.151Z,39.77
2023-05-20T12:53:35.316Z,39.82
2023-05-20T12:56:02.628Z,39.71
2023-05-20T12:58:29.977Z,40.13
2023-05-20T13:01:00.133Z,39.91
2023-05-20T13:03:29.802Z,40.05
2023-05-20T13:05:57.071Z,40.33
2023-05-20T13:08:24.449Z,40.20
2023-05-20T13:10:52.615Z,40.63
2023-05-20T13:13:21.932Z,40.65
2023-05-20T13:15:52.500Z,40.63
2023-05-20T13:18:20.164Z,40.65
2023-05-20T13:20:47.365Z,40.93
2023-05-20T13:23:14.785Z,41.19
2023-05-20T13:25:42.050Z,40.96
2023-05-20T13:28:09.772Z,41.04
2023-05-20T13:30:37.119Z,41.24
2023-05-20T13:33:04.841Z,41.12
2023-05-20T13:35:32.063Z,41.05
2023-05-20T13:37:59.247Z,41.30
2023-05-20T13:40:26.583Z,41.46
2023-05-20T13:42:54.379Z,41.04
2023-05-20T13:45:23.318Z,40.89
2023-05-20T13:47:50.416Z,40.98
2023-05-20T13:50:17.826Z,41.22
2023-05-20T13:52:45.108Z,40.90
2023-05-20T13:55:12.331Z,41.00
2023-05-20T13:57:39.686Z,41.15
2023-05-20T14:00:07.677Z,41.29
2023-05-20T14:02:36.737Z,41.28
2023-05-20T14:05:04.353Z,41.21
2023-05-20T14:07:31.989Z,41.27
2023-05-20T14:09:59.114Z,41.46
2023-05-20T14:12:26.363Z,41.51
2023-05-20T14:14:53.494Z,41.36
2023-05-20T14:17:20.601Z,41.36
2023-05-20T14:19:48.154Z,41.51
2023-05-20T14:22:15.843Z,41.64
2023-05-20T14:24:43.103Z,41.51
2023-05-20T14:27:11.618Z,41.93
2023-05-20T14:29:38.687Z,41.86
2023-05-20T14:32:06.227Z,41.93
2023-05-20T14:34:33.412Z,42.29
2023-05-20T14:37:06.715Z,42.11
2023-05-20T14:39:33.819Z,42.01
2023-05-20T14:42:00.911Z,42.08
2023-05-20T14:44:28.066Z,42.31
2023-05-20T14:46:55.746Z,42.20
2023-05-20T14:49:23.425Z,42.50
2023-05-20T14:51:50.644Z,42.72
2023-05-20T14:54:19.298Z,42.98
2023-05-20T14:56:48.646Z,42.96
2023-05-20T14:59:17.239Z,42.89
2023-05-20T15:01:44.559Z,43.07
2023-05-20T15:04:11.960Z,42.96
2023-05-20T15:06:39.303Z,42.80
2023-05-20T15:09:06.556Z,43.16
2023-05-20T15:11:33.704Z,43.31
2023-05-20T15:14:01.069Z,42.88
2023-05-20T15:16:28.537Z,42.91
2023-05-20T15:18:55.745Z,42.74
2023-05-20T15:21:22.989Z,42.97
2023-05-20T15:23:50.295Z,42.59
2023-05-20T15:26:17.912Z,42.63
2023-05-20T15:28:45.103Z,42.73
2023-05-20T15:31:12.209Z,42.23
2023-05-20T15:33:39.671Z,41.76
2023-05-20T15:36:07.253Z,40.58
2023-05-20T15:38:34.401Z,39.54
2023-05-20T15:41:02.366Z,38.65
2023-05-20T15:43:29.876Z,37.51
2023-05-20T15:45:57.046Z,36.64
2023-05-20T15:48:24.487Z,35.70
2023-05-20T15:50:51.608Z,35.00
2023-05-20T15:53:19.038Z,35.29
2023-05-20T15:55:46.284Z,35.73
2023-05-20T15:58:13.738Z,36.48
2023-05-20T16:00:40.881Z,37.19
2023-05-20T16:03:08.541Z,37.53
2023-05-20T16:05:35.957Z,38.25
2023-05-20T16:08:03.444Z,38.17
2023-05-20T16:10:33.194Z,38.58
2023-05-20T16:13:01.521Z,38.93
2023-05-20T16:15:31.843Z,39.10
2023-05-20T16:17:59.011Z,39.28
2023-05-20T16:20:26.193Z,39.38
2023-05-20T16:22:53.443Z,39.59
2023-05-20T16:25:20.703Z,39.70
2023-05-20T16:27:48.722Z,39.97
2023-05-20T16:30:16.086Z,40.41
2023-05-20T16:32:43.393Z,40.41
2023-05-20T16:35:10.572Z,40.69
2023-05-20T16:37:37.720Z,40.69
2023-05-20T16:40:05.816Z,40.75
2023-05-20T16:42:33.148Z,41.10
2023-05-20T16:45:00.363Z,41.02
2023-05-20T16:47:27.555Z,41.18
2023-05-20T16:49:54.835Z,41.17
2023-05-20T16:52:22.340Z,41.19
2023-05-20T16:54:51.241Z,41.36
2023-05-20T16:57:18.963Z,41.61
2023-05-20T16:59:46.492Z,41.42
2023-05-20T17:02:13.604Z,41.71
2023-05-20T17:04:40.819Z,42.05
2023-05-20T17:07:09.949Z,41.86
2023-05-20T17:09:37.634Z,41.88
2023-05-20T17:12:05.628Z,42.01
2023-05-20T17:14:33.416Z,42.10
2023-05-20T17:17:00.678Z,42.26
2023-05-20T17:19:27.882Z,42.28
2023-05-20T17:21:55.406Z,42.55
2023-05-20T17:24:22.833Z,42.73
2023-05-20T17:26:50.167Z,42.88
2023-05-20T17:29:17.293Z,42.92
2023-05-20T17:31:44.821Z,43.18
2023-05-20T17:34:12.115Z,43.47
2023-05-20T17:36:39.226Z,43.83
2023-05-20T17:39:06.761Z,43.80
2023-05-20T17:41:33.812Z,44.13
2023-05-20T17:44:01.783Z,44.55
2023-05-20T17:46:29.318Z,44.88
2023-05-20T17:48:56.955Z,44.84
2023-05-20T17:51:24.092Z,45.13
2023-05-20T17:53:51.292Z,45.23
2023-05-20T17:56:18.691Z,45.32
2023-05-20T17:58:45.850Z,45.71
2023-05-20T18:01:13.055Z,45.90
2023-05-20T18:03:40.870Z,46.08
2023-05-20T18:06:08.927Z,46.22
2023-05-20T18:08:36.216Z,46.72
2023-05-20T18:11:03.505Z,47.17
2023-05-20T18:13:30.709Z,47.29
2023-05-20T18:15:57.901Z,47.60
2023-05-20T18:18:25.360Z,48.05
2023-05-20T18:20:52.392Z,48.79
2023-05-20T18:23:19.485Z,48.83
2023-05-20T18:25:46.695Z,48.89
2023-05-20T18:28:14.185Z,50.00
2023-05-20T18:30:41.452Z,50.56
2023-05-20T18:33:08.638Z,50.96
2023-05-20T18:35:36.059Z,51.57
2023-05-20T18:38:03.144Z,51.64
2023-05-20T18:40:30.250Z,51.96
2023-05-20T18:42:57.552Z,52.27
2023-05-20T18:45:25.148Z,52.39
2023-05-20T18:47:54.438Z,52.49
2023-05-20T18:50:21.908Z,52.97
2023-05-20T18:52:48.945Z,53.23
2023-05-20T18:55:16.408Z,53.31
2023-05-20T18:57:43.776Z,53.66
2023-05-20T19:00:12.661Z,54.38
2023-05-20T19:02:41.368Z,54.39
2023-05-20T19:05:09.512Z,55.04
2023-05-20T19:07:37.203Z,54.74
2023-05-20T19:10:05.499Z,54.97
2023-05-20T19:12:33.575Z,55.59
2023-05-20T19:15:01.543Z,55.83
2023-05-20T19:17:32.507Z,55.70
2023-05-20T19:19:59.733Z,56.30
2023-05-20T19:22:26.921Z,56.55
2023-05-20T19:24:54.055Z,56.85
2023-05-20T19:27:21.674Z,57.25
2023-05-20T19:29:48.671Z,57.78
2023-05-20T19:32:16.240Z,58.36
2023-05-20T19:34:43.973Z,58.18
2023-05-20T19:37:11.624Z,58.65
2023-05-20T19:39:38.808Z,59.51
2023-05-20T19:42:05.941Z,58.96
2023-05-20T19:44:33.052Z,59.98
2023-05-20T19:47:00.264Z,59.63
2023-05-20T19:49:29.607Z,60.04
2023-05-20T19:51:57.083Z,60.04
2023-05-20T19:54:24.215Z,60.96
2023-05-20T19:56:51.483Z,60.78
2023-05-20T19:59:18.502Z,61.70
2023-05-20T20:01:46.378Z,61.76
2023-05-20T20:04:17.216Z,61.77
2023-05-20T20:06:45.220Z,61.87
2023-05-20T20:09:12.367Z,61.49
2023-05-20T20:11:39.505Z,61.73
2023-05-20T20:14:06.585Z,61.88
2023-05-20T20:16:33.817Z,62.14
2023-05-20T20:19:01.491Z,62.23
2023-05-20T20:21:28.724Z,62.84
2023-05-20T20:23:55.741Z,61.97
2023-05-20T20:26:25.998Z,62.56
2023-05-20T20:28:53.535Z,62.71
2023-05-20T20:31:21.172Z,63.18
2023-05-20T20:33:48.272Z,62.80
2023-05-20T20:36:15.328Z,63.27
2023-05-20T20:38:46.809Z,63.31
2023-05-20T20:41:16.365Z,62.72
2023-05-20T20:43:45.142Z,63.08
2023-05-20T20:46:15.710Z,63.64
2023-05-20T20:48:45.945Z,63.40
2023-05-20T20:51:14.483Z,63.73
2023-05-20T20:53:42.301Z,64.29
2023-05-20T20:56:10.107Z,63.78
2023-05-20T20:58:38.474Z,64.60
2023-05-20T21:01:06.952Z,64.20
2023-05-20T21:03:34.354Z,65.29
2023-05-20T21:06:02.151Z,65.25
2023-05-20T21:08:30.627Z,65.54
2023-05-20T21:10:59.503Z,66.02
2023-05-20T21:13:30.073Z,66.42
2023-05-20T21:15:57.540Z,67.02
2023-05-20T21:18:24.837Z,67.03
2023-05-20T21:20:53.143Z,67.24
2023-05-20T21:23:21.445Z,67.03
2023-05-20T21:25:49.199Z,67.91
2023-05-20T21:28:16.698Z,67.79
2023-05-20T21:30:45.188Z,68.13
2023-05-20T21:33:12.612Z,68.03
2023-05-20T21:35:39.820Z,67.83
2023-05-20T21:38:06.887Z,67.84
2023-05-20T21:40:34.030Z,68.23
2023-05-20T21:43:01.312Z,68.79
2023-05-20T21:45:28.386Z,68.32
2023-05-20T21:47:55.562Z,68.93
2023-05-20T21:50:23.199Z,69.29
2023-05-20T21:52:50.630Z,69.05
2023-05-20T21:55:23.363Z,68.98
2023-05-20T21:57:51.290Z,69.49
2023-05-20T22:00:19.334Z,69.54
2023-05-20T22:02:46.962Z,69.90
2023-05-20T22:05:15.796Z,70.15
2023-05-20T22:07:44.662Z,70.11
2023-05-20T22:10:13.820Z,70.07
2023-05-20T22:12:44.108Z,70.20
2023-05-20T22:15:11.614Z,70.98
2023-05-20T22:17:41.271Z,70.86
2023-05-20T22:20:10.602Z,70.68
2023-05-20T22:22:39.426Z,71.59
2023-05-20T22:25:07.311Z,71.57
2023-05-20T22:27:35.086Z,71.74
2023-05-20T22:30:06.105Z,71.56
2023-05-20T22:32:33.350Z,72.00
2023-05-20T22:35:00.458Z,72.00
2023-05-20T22:37:28.968Z,72.33
2023-05-20T22:39:56.862Z,72.54
2023-05-20T22:42:24.243Z,72.28
2023-05-20T22:44:51.338Z,72.44
2023-05-20T22:47:18.669Z,72.63
2023-05-20T22:49:45.902Z,72.91
2023-05-20T22:52:12.951Z,73.08
2023-05-20T22:54:40.170Z,73.21
2023-05-20T22:57:07.819Z,72.71
2023-05-20T22:59:36.753Z,73.39
2023-05-20T23:02:04.649Z,73.18
2023-05-20T23:04:32.533Z,73.17
2023-05-20T23:07:00.238Z,73.24
2023-05-20T23:09:27.356Z,73.46
2023-05-20T23:11:54.612Z,73.33
2023-05-20T23:14:21.932Z,73.70
2023-05-20T23:16:49.190Z,73.53
2023-05-20T23:19:16.918Z,73.79
2023-05-20T23:21:44.176Z,73.58
2023-05-20T23:24:12.023Z,73.84
2023-05-20T23:26:39.695Z,73.72
2023-05-20T23:29:06.988Z,74.18
2023-05-20T23:31:34.312Z,73.85
2023-05-20T23:34:03.924Z,74.04
2023-05-20T23:36:35.375Z,74.21
2023-05-20T23:39:03.076Z,74.89
2023-05-20T23:41:30.189Z,74.74
2023-05-20T23:43:57.271Z,74.49
2023-05-20T23:46:24.359Z,74.89
2023-05-20T23:48:52.214Z,75.08
2023-05-20T23:51:19.470Z,74.95
2023-05-20T23:53:46.525Z,75.22
2023-05-20T23:56:13.774Z,75.73
2023-05-20T23:58:41.013Z,75.39
